In Rescue
 
Open Full Screen Window  High Contrast Mode
Wind Gusting 00 knots
06
May 20, 2019 1:35 PM CDT
Weather Information
Wind Direction
  070 °
Wind Speed
  06 kt (7 mph)
Wind Gust
  00 kt (0 mph)
Altimeter
30.14 in
Visibility
10 SM
Temperature
13° C
55° F
Dewpoint
03° C
37° F
Humidity
51%
1hr Rain Fall
00.00 in.
24hr Rain Fall
00.01 in.
Sky Condition
Clear
VFR

METAR KMWM 201835Z AUTO 07006KT 10SM CLR 13/03 A3014 RMK AO2

FAA Disclaimer: The data displayed is for advisory purposes only and is not to be used for flight planning or operations.